createdAt,value
2022-12-15T00:00:35.434Z,33.78
2022-12-15T00:01:56.032Z,29.58
2022-12-15T00:03:23.128Z,33.75
2022-12-15T00:04:43.603Z,35.63
2022-12-15T00:06:04.753Z,37.17
2022-12-15T00:07:25.256Z,37.90
2022-12-15T00:08:45.680Z,41.20
2022-12-15T00:10:06.152Z,40.30
2022-12-15T00:11:26.519Z,36.85
2022-12-15T00:12:46.988Z,40.83
2022-12-15T00:14:08.116Z,34.17
2022-12-15T00:15:28.747Z,41.83
2022-12-15T00:16:49.233Z,38.17
2022-12-15T00:18:09.832Z,37.45
2022-12-15T00:19:30.406Z,34.83
2022-12-15T00:20:50.899Z,41.65
2022-12-15T00:22:11.346Z,37.95
2022-12-15T00:23:32.248Z,42.70
2022-12-15T00:24:53.354Z,39.55
2022-12-15T00:26:13.885Z,39.85
2022-12-15T00:27:34.850Z,43.63
2022-12-15T00:28:55.368Z,41.08
2022-12-15T00:30:16.102Z,42.95
2022-12-15T00:31:37.272Z,43.80
2022-12-15T00:32:57.993Z,41.58
2022-12-15T00:34:18.787Z,42.17
2022-12-15T00:35:39.303Z,44.53
2022-12-15T00:37:00.223Z,37.88
2022-12-15T00:38:28.522Z,43.38
2022-12-15T00:39:30.680Z,39.03
2022-12-15T00:40:32.841Z,43.50
2022-12-15T00:41:35.010Z,42.47
2022-12-15T00:42:37.204Z,41.13
2022-12-15T00:43:39.392Z,46.08
2022-12-15T00:44:41.983Z,44.70
2022-12-15T00:46:07.010Z,41.17
2022-12-15T00:47:09.207Z,39.97
2022-12-15T00:48:11.391Z,40.30
2022-12-15T00:49:32.181Z,39.85
2022-12-15T00:50:52.318Z,43.28
2022-12-15T00:52:12.920Z,39.17
2022-12-15T00:53:34.122Z,41.42
2022-12-15T00:54:55.092Z,43.95
2022-12-15T00:56:15.857Z,41.72
2022-12-15T00:57:36.353Z,40.72
2022-12-15T00:58:57.222Z,43.00
2022-12-15T01:00:17.900Z,38.15
2022-12-15T01:01:38.497Z,37.22
2022-12-15T01:02:59.746Z,35.15
2022-12-15T01:04:20.397Z,38.47
2022-12-15T01:05:40.949Z,34.25
2022-12-15T01:07:01.787Z,40.83
2022-12-15T01:08:22.344Z,43.72
2022-12-15T01:09:43.371Z,44.53
2022-12-15T01:11:04.408Z,37.65
2022-12-15T01:12:25.253Z,43.72
2022-12-15T01:13:45.802Z,42.95
2022-12-15T01:15:10.917Z,43.50
2022-12-15T01:16:32.116Z,45.80
2022-12-15T01:17:53.044Z,47.80
2022-12-15T01:19:14.079Z,41.75
2022-12-15T01:20:19.605Z,42.42
2022-12-15T01:21:24.585Z,44.55
2022-12-15T01:22:27.478Z,40.45
2022-12-15T01:23:31.427Z,49.85
2022-12-15T01:24:34.350Z,49.25
2022-12-15T01:25:38.956Z,45.13
2022-12-15T01:26:41.465Z,43.63
2022-12-15T01:27:44.202Z,44.42
2022-12-15T01:28:46.388Z,49.50
2022-12-15T01:29:48.608Z,49.13
2022-12-15T01:30:51.083Z,45.88
2022-12-15T01:31:53.365Z,48.40
2022-12-15T01:32:55.633Z,40.88
2022-12-15T01:33:57.808Z,44.75
2022-12-15T01:35:00.049Z,40.83
2022-12-15T01:36:02.437Z,43.08
2022-12-15T01:37:04.745Z,40.83
2022-12-15T01:38:07.604Z,50.35
2022-12-15T01:39:10.551Z,44.72
2022-12-15T01:40:33.986Z,43.67
2022-12-15T01:41:36.165Z,44.75
2022-12-15T01:42:38.316Z,41.28
2022-12-15T01:43:40.994Z,46.90
2022-12-15T01:44:47.175Z,42.95
2022-12-15T01:45:54.148Z,43.47
2022-12-15T01:46:56.635Z,42.38
2022-12-15T01:48:09.129Z,46.20
2022-12-15T01:50:16.791Z,42.17
2022-12-15T01:51:48.476Z,44.03
2022-12-15T01:52:51.815Z,42.20
2022-12-15T01:54:01.477Z,48.13
2022-12-15T01:55:03.935Z,44.05
2022-12-15T01:56:08.410Z,45.10
2022-12-15T01:57:18.350Z,47.83
2022-12-15T01:58:21.980Z,57.28
2022-12-15T01:59:34.353Z,50.38
2022-12-15T02:01:41.672Z,43.08
2022-12-15T02:02:45.884Z,49.58
2022-12-15T02:03:48.619Z,48.97
2022-12-15T02:04:52.839Z,41.92
2022-12-15T02:05:55.588Z,46.83
2022-12-15T02:06:57.764Z,51.50
2022-12-15T02:08:01.833Z,45.17
2022-12-15T02:09:04.756Z,54.05
2022-12-15T02:10:10.174Z,46.75
2022-12-15T02:11:38.693Z,44.00
2022-12-15T02:12:58.732Z,44.78
2022-12-15T02:14:10.060Z,50.05
2022-12-15T02:15:12.203Z,43.28
2022-12-15T02:16:36.800Z,58.03
2022-12-15T02:17:47.105Z,80.00
2022-12-15T02:19:19.889Z,69.90
2022-12-15T02:20:51.533Z,51.60
2022-12-15T02:22:27.356Z,43.40
2022-12-15T02:23:45.187Z,49.80
2022-12-15T02:25:18.144Z,45.95
2022-12-15T02:27:11.427Z,46.42
2022-12-15T02:28:19.857Z,48.17
2022-12-15T02:29:40.627Z,43.38
2022-12-15T02:31:07.922Z,47.28
2022-12-15T02:32:14.243Z,47.25
2022-12-15T02:33:30.120Z,45.28
2022-12-15T02:34:44.465Z,48.75
2022-12-15T02:35:55.275Z,46.97
2022-12-15T02:37:01.694Z,53.25
2022-12-15T02:38:03.916Z,48.35
2022-12-15T02:39:06.130Z,50.05
2022-12-15T02:40:10.326Z,46.45
2022-12-15T02:41:34.021Z,44.70
2022-12-15T02:42:42.525Z,51.35
2022-12-15T02:43:44.717Z,48.25
2022-12-15T02:44:55.602Z,46.58
2022-12-15T02:46:19.181Z,47.28
2022-12-15T02:47:27.076Z,59.00
2022-12-15T02:48:52.783Z,55.17
2022-12-15T02:50:19.696Z,73.57
2022-12-15T02:51:36.737Z,57.50
2022-12-15T02:52:52.103Z,62.05
2022-12-15T02:54:42.750Z,52.22
2022-12-15T02:55:57.720Z,58.03
2022-12-15T02:57:17.999Z,60.83
2022-12-15T02:58:32.151Z,57.75
2022-12-15T03:00:00.561Z,52.85
2022-12-15T03:01:10.275Z,60.83
2022-12-15T03:02:14.167Z,46.35
2022-12-15T03:03:20.525Z,53.75
2022-12-15T03:04:23.061Z,50.33
2022-12-15T03:05:26.120Z,50.10
2022-12-15T03:06:28.792Z,52.05
2022-12-15T03:07:31.062Z,56.63
2022-12-15T03:08:33.524Z,62.03
2022-12-15T03:09:36.175Z,58.63
2022-12-15T03:10:38.416Z,56.63
2022-12-15T03:11:40.589Z,65.15
2022-12-15T03:12:42.789Z,65.25
2022-12-15T03:13:45.199Z,56.13
2022-12-15T03:14:47.589Z,55.72
2022-12-15T03:15:50.104Z,54.15
2022-12-15T03:16:53.203Z,58.83
2022-12-15T03:17:55.498Z,48.40
2022-12-15T03:18:57.718Z,58.20
2022-12-15T03:19:59.881Z,60.78
2022-12-15T03:21:02.236Z,61.08
2022-12-15T03:22:07.176Z,69.63
2022-12-15T03:23:09.331Z,65.63
2022-12-15T03:24:11.633Z,61.42
2022-12-15T03:25:13.803Z,65.75
2022-12-15T03:26:16.475Z,62.88
2022-12-15T03:27:18.674Z,64.95
2022-12-15T03:28:20.856Z,65.15
2022-12-15T03:29:23.078Z,60.45
2022-12-15T03:30:25.340Z,64.55
2022-12-15T03:31:27.614Z,70.68
2022-12-15T03:32:29.977Z,68.80
2022-12-15T03:33:34.145Z,63.88
2022-12-15T03:34:36.525Z,54.28
2022-12-15T03:35:38.687Z,61.67
2022-12-15T03:36:40.928Z,63.95
2022-12-15T03:37:43.123Z,66.07
2022-12-15T03:38:45.233Z,63.35
2022-12-15T03:39:47.710Z,63.60
2022-12-15T03:40:49.983Z,73.03
2022-12-15T03:41:52.178Z,65.78
2022-12-15T03:42:54.420Z,69.78
2022-12-15T03:43:56.665Z,67.22
2022-12-15T03:44:58.855Z,69.75
2022-12-15T03:46:01.137Z,72.00
2022-12-15T03:47:04.083Z,69.43
2022-12-15T03:48:06.448Z,67.38
2022-12-15T03:49:08.732Z,71.40
2022-12-15T03:50:12.500Z,76.38
2022-12-15T03:51:15.133Z,70.90
2022-12-15T03:52:17.256Z,70.55
2022-12-15T03:53:19.704Z,71.50
2022-12-15T03:54:22.059Z,69.30
2022-12-15T03:55:25.729Z,72.05
2022-12-15T03:56:28.501Z,69.80
2022-12-15T03:57:31.429Z,69.95
2022-12-15T03:58:33.588Z,70.32
2022-12-15T03:59:35.766Z,71.95
2022-12-15T04:00:37.916Z,70.30
2022-12-15T04:01:46.877Z,63.92
2022-12-15T04:02:50.291Z,69.68
2022-12-15T04:03:58.539Z,73.82
2022-12-15T04:05:02.676Z,65.30
2022-12-15T04:06:04.973Z,74.20
2022-12-15T04:07:07.183Z,75.93
2022-12-15T04:08:09.448Z,73.38
2022-12-15T04:09:11.601Z,74.10
2022-12-15T04:10:14.088Z,67.85
2022-12-15T04:11:17.092Z,74.45
2022-12-15T04:12:19.288Z,68.25
2022-12-15T04:13:21.488Z,67.30
2022-12-15T04:14:23.714Z,72.13
2022-12-15T04:15:27.531Z,67.53
2022-12-15T04:16:29.746Z,69.40
2022-12-15T04:17:32.044Z,65.70
2022-12-15T04:18:34.476Z,70.05
2022-12-15T04:19:55.690Z,68.22
2022-12-15T04:20:57.842Z,69.68
2022-12-15T04:22:02.439Z,68.97
2022-12-15T04:23:07.572Z,77.68
2022-12-15T04:24:28.506Z,77.95
2022-12-15T04:25:49.127Z,78.57
2022-12-15T04:27:10.182Z,72.70
2022-12-15T04:28:31.372Z,68.35
2022-12-15T04:29:52.252Z,73.82
2022-12-15T04:31:30.563Z,74.20
2022-12-15T04:32:51.504Z,75.03
2022-12-15T04:34:17.119Z,77.65
2022-12-15T04:35:38.202Z,75.22
2022-12-15T04:37:02.408Z,79.65
2022-12-15T04:38:23.540Z,77.43
2022-12-15T04:39:44.102Z,75.15
2022-12-15T04:41:05.148Z,72.40
2022-12-15T04:42:26.148Z,74.43
2022-12-15T04:43:47.349Z,71.85
2022-12-15T04:45:14.191Z,67.45
2022-12-15T04:46:38.467Z,73.40
2022-12-15T04:47:59.695Z,74.78
2022-12-15T04:49:20.580Z,78.00
2022-12-15T04:50:41.283Z,78.13
2022-12-15T04:52:02.417Z,76.00
2022-12-15T04:53:28.207Z,77.30
2022-12-15T04:54:49.440Z,75.82
2022-12-15T04:56:14.992Z,81.43
2022-12-15T04:57:38.702Z,76.75
2022-12-15T04:58:59.445Z,72.68
2022-12-15T05:00:20.395Z,74.70
2022-12-15T05:01:41.888Z,71.38
2022-12-15T05:03:02.591Z,71.93
2022-12-15T05:04:23.313Z,73.32
2022-12-15T05:05:43.744Z,66.72
2022-12-15T05:07:04.456Z,76.38
2022-12-15T05:08:24.890Z,78.07
2022-12-15T05:09:45.464Z,73.68
2022-12-15T05:11:06.421Z,80.53
2022-12-15T05:12:27.011Z,73.35
2022-12-15T05:13:47.680Z,75.10
2022-12-15T05:15:08.283Z,77.93
2022-12-15T05:16:29.380Z,82.82
2022-12-15T05:17:49.874Z,79.85
2022-12-15T05:19:10.294Z,69.55
2022-12-15T05:20:31.337Z,71.45
2022-12-15T05:21:52.521Z,78.35
2022-12-15T05:23:14.528Z,69.15
2022-12-15T05:24:34.986Z,57.00
2022-12-15T05:25:55.609Z,102.60
2022-12-15T05:27:16.045Z,80.13
2022-12-15T05:28:36.548Z,83.78
2022-12-15T05:29:57.106Z,108.78
2022-12-15T05:31:17.845Z,116.00
2022-12-15T05:32:20.108Z,110.72
2022-12-15T05:33:22.437Z,104.80
2022-12-15T05:34:30.488Z,85.97
2022-12-15T05:35:32.865Z,85.20
2022-12-15T05:36:35.264Z,80.72
2022-12-15T05:37:37.601Z,81.20
2022-12-15T05:38:39.894Z,88.65
2022-12-15T05:39:42.323Z,79.50
2022-12-15T05:40:44.589Z,74.95
2022-12-15T05:41:47.242Z,71.18
2022-12-15T05:42:51.984Z,68.97
2022-12-15T05:43:54.275Z,71.72
2022-12-15T05:44:56.695Z,77.78
2022-12-15T05:46:03.949Z,69.10
2022-12-15T05:47:06.467Z,80.82
2022-12-15T05:48:08.666Z,70.13
2022-12-15T05:49:13.608Z,73.97
2022-12-15T05:50:15.752Z,79.43
2022-12-15T05:51:17.922Z,77.50
2022-12-15T05:52:20.076Z,71.00
2022-12-15T05:53:22.437Z,66.13
2022-12-15T05:54:24.672Z,75.18
2022-12-15T05:55:26.852Z,81.78
2022-12-15T05:56:29.058Z,72.68
2022-12-15T05:57:31.206Z,89.90
2022-12-15T05:58:33.430Z,85.05
2022-12-15T05:59:35.835Z,89.43
2022-12-15T06:00:38.202Z,96.03
2022-12-15T06:01:40.612Z,92.50
2022-12-15T06:02:42.941Z,95.85
2022-12-15T06:03:45.756Z,86.75
2022-12-15T06:04:48.080Z,84.00
2022-12-15T06:05:56.119Z,79.95
2022-12-15T06:06:58.738Z,69.25
2022-12-15T06:08:01.020Z,79.03
2022-12-15T06:09:03.549Z,83.90
2022-12-15T06:10:05.939Z,83.15
2022-12-15T06:11:11.508Z,83.13
2022-12-15T06:12:13.648Z,78.60
2022-12-15T06:13:15.874Z,73.57
2022-12-15T06:14:18.171Z,74.05
2022-12-15T06:15:20.440Z,79.90
2022-12-15T06:16:24.985Z,73.47
2022-12-15T06:17:27.408Z,78.55
2022-12-15T06:18:32.210Z,74.15
2022-12-15T06:19:34.577Z,63.25
2022-12-15T06:20:36.881Z,68.97
2022-12-15T06:21:39.211Z,69.03
2022-12-15T06:22:45.299Z,72.10
2022-12-15T06:23:52.366Z,71.57
2022-12-15T06:24:54.566Z,67.07
2022-12-15T06:25:56.987Z,76.60
2022-12-15T06:26:59.306Z,69.70
2022-12-15T06:28:02.025Z,66.13
2022-12-15T06:29:08.580Z,67.53
2022-12-15T06:30:11.123Z,65.32
2022-12-15T06:31:14.640Z,64.70
2022-12-15T06:32:16.852Z,68.03
2022-12-15T06:33:20.555Z,71.40
2022-12-15T06:34:22.695Z,70.22
2022-12-15T06:35:25.094Z,90.00
2022-12-15T06:36:28.507Z,77.10
2022-12-15T06:37:30.810Z,82.07
2022-12-15T06:38:33.886Z,165.25
2022-12-15T06:39:36.104Z,161.63
2022-12-15T06:40:40.110Z,158.65
2022-12-15T06:41:43.616Z,410.10
2022-12-15T06:42:45.793Z,136.63
2022-12-15T06:43:52.002Z,143.02
2022-12-15T06:44:54.207Z,150.13
2022-12-15T06:45:56.647Z,166.23
2022-12-15T06:46:58.918Z,85.20
2022-12-15T06:48:01.795Z,104.30
2022-12-15T06:49:04.575Z,71.68
2022-12-15T06:50:07.736Z,71.57
2022-12-15T06:51:16.567Z,68.43
2022-12-15T06:52:19.402Z,68.35
2022-12-15T06:53:24.203Z,66.40
2022-12-15T06:54:26.459Z,64.22
2022-12-15T06:55:28.697Z,58.17
2022-12-15T06:56:36.005Z,65.88
2022-12-15T06:57:38.889Z,60.08
2022-12-15T06:58:41.052Z,69.38
2022-12-15T06:59:43.283Z,64.28
2022-12-15T07:00:46.528Z,66.35
2022-12-15T07:01:49.166Z,70.00
2022-12-15T07:02:51.774Z,69.78
2022-12-15T07:03:55.120Z,70.43
2022-12-15T07:04:57.581Z,69.78
2022-12-15T07:06:05.605Z,69.30
2022-12-15T07:07:10.031Z,72.22
2022-12-15T07:08:16.361Z,67.72
2022-12-15T07:09:18.593Z,74.13
2022-12-15T07:10:20.874Z,68.82
2022-12-15T07:11:23.556Z,66.97
2022-12-15T07:12:25.760Z,64.32
2022-12-15T07:13:28.710Z,67.13
2022-12-15T07:14:31.328Z,61.97
2022-12-15T07:15:33.805Z,60.03
2022-12-15T07:16:36.317Z,60.83
2022-12-15T07:17:38.511Z,67.22
2022-12-15T07:18:40.819Z,64.32
2022-12-15T07:19:43.046Z,61.33
2022-12-15T07:20:45.630Z,58.28
2022-12-15T07:21:52.848Z,59.95
2022-12-15T07:22:55.476Z,60.33
2022-12-15T07:23:58.411Z,58.75
2022-12-15T07:25:01.302Z,55.65
2022-12-15T07:26:11.272Z,55.58
2022-12-15T07:27:14.616Z,54.80
2022-12-15T07:28:20.029Z,54.47
2022-12-15T07:29:26.344Z,52.90
2022-12-15T07:30:32.383Z,54.75
2022-12-15T07:31:37.490Z,55.15
2022-12-15T07:32:39.758Z,57.13
2022-12-15T07:33:41.963Z,54.58
2022-12-15T07:34:44.501Z,57.75
2022-12-15T07:35:54.357Z,53.42
2022-12-15T07:36:56.496Z,58.05
2022-12-15T07:38:00.337Z,59.25
2022-12-15T07:39:03.964Z,61.80
2022-12-15T07:40:06.855Z,59.85
2022-12-15T07:41:09.959Z,53.13
2022-12-15T07:42:12.310Z,58.40
2022-12-15T07:43:14.620Z,57.22
2022-12-15T07:44:16.973Z,62.97
2022-12-15T07:45:19.180Z,58.22
2022-12-15T07:46:21.533Z,51.53
2022-12-15T07:47:24.153Z,55.55
2022-12-15T07:48:27.330Z,55.15
2022-12-15T07:49:29.595Z,60.70
2022-12-15T07:50:31.803Z,60.33
2022-12-15T07:51:33.973Z,66.47
2022-12-15T07:52:36.230Z,58.22
2022-12-15T07:53:39.126Z,59.45
2022-12-15T07:54:41.451Z,58.50
2022-12-15T07:56:06.149Z,58.60
2022-12-15T07:57:07.412Z,58.05
2022-12-15T07:58:09.639Z,55.13
2022-12-15T07:59:11.971Z,60.55
2022-12-15T08:00:15.603Z,58.80
2022-12-15T08:01:17.905Z,57.47
2022-12-15T08:02:20.294Z,50.70
2022-12-15T08:03:22.752Z,56.90
2022-12-15T08:04:24.985Z,55.35
2022-12-15T08:05:27.692Z,58.03
2022-12-15T08:06:29.938Z,57.33
2022-12-15T08:07:32.109Z,58.53
2022-12-15T08:08:35.580Z,58.80
2022-12-15T08:09:38.026Z,56.13
2022-12-15T08:10:40.896Z,57.78
2022-12-15T08:11:43.281Z,54.67
2022-12-15T08:12:45.477Z,56.67
2022-12-15T08:14:06.937Z,55.88
2022-12-15T08:15:11.719Z,60.42
2022-12-15T08:16:14.057Z,57.95
2022-12-15T08:17:16.272Z,60.20
2022-12-15T08:18:18.516Z,58.30
2022-12-15T08:19:21.092Z,54.80
2022-12-15T08:20:23.303Z,57.45
2022-12-15T08:21:25.574Z,56.05
2022-12-15T08:22:27.838Z,56.47
2022-12-15T08:23:31.526Z,60.22
2022-12-15T08:24:34.030Z,61.67
2022-12-15T08:25:36.444Z,54.13
2022-12-15T08:26:39.133Z,60.22
2022-12-15T08:27:41.320Z,58.97
2022-12-15T08:28:44.957Z,56.55
2022-12-15T08:29:52.190Z,55.47
2022-12-15T08:30:54.852Z,60.20
2022-12-15T08:31:57.414Z,61.95
2022-12-15T08:33:00.615Z,57.10
2022-12-15T08:34:05.690Z,61.42
2022-12-15T08:35:25.335Z,63.22
2022-12-15T08:36:31.963Z,61.05
2022-12-15T08:37:34.550Z,56.20
2022-12-15T08:38:38.740Z,56.30
2022-12-15T08:39:41.050Z,61.65
2022-12-15T08:40:43.304Z,58.60
2022-12-15T08:41:45.559Z,61.95
2022-12-15T08:42:47.829Z,59.22
2022-12-15T08:43:50.974Z,57.13
2022-12-15T08:44:53.161Z,54.55
2022-12-15T08:45:55.352Z,58.75
2022-12-15T08:46:57.521Z,56.05
2022-12-15T08:47:59.665Z,56.72
2022-12-15T08:49:03.388Z,58.50
2022-12-15T08:50:08.063Z,56.90
2022-12-15T08:51:11.980Z,58.72
2022-12-15T08:52:14.208Z,55.67
2022-12-15T08:53:32.311Z,59.45
2022-12-15T08:54:34.676Z,56.53
2022-12-15T08:55:37.038Z,58.67
2022-12-15T08:56:39.776Z,60.00
2022-12-15T08:57:42.035Z,57.75
2022-12-15T08:58:48.273Z,58.60
2022-12-15T08:59:50.487Z,58.70
2022-12-15T09:00:52.822Z,59.58
2022-12-15T09:01:55.270Z,60.03
2022-12-15T09:02:59.151Z,57.92
2022-12-15T09:04:03.907Z,61.60
2022-12-15T09:05:06.295Z,57.65
2022-12-15T09:06:13.957Z,59.20
2022-12-15T09:07:16.282Z,63.28
2022-12-15T09:08:18.410Z,57.17
2022-12-15T09:09:20.838Z,57.28
2022-12-15T09:10:23.667Z,55.75
2022-12-15T09:11:27.364Z,56.38
2022-12-15T09:12:29.576Z,58.42
2022-12-15T09:13:32.823Z,57.00
2022-12-15T09:14:35.386Z,54.95
2022-12-15T09:16:07.717Z,56.20
2022-12-15T09:16:59.991Z,55.75
2022-12-15T09:18:02.144Z,60.33
2022-12-15T09:19:04.713Z,53.75
2022-12-15T09:20:08.999Z,57.20
2022-12-15T09:21:11.796Z,60.00
2022-12-15T09:22:14.049Z,58.35
2022-12-15T09:23:16.369Z,58.00
2022-12-15T09:24:28.726Z,54.55
2022-12-15T09:25:34.586Z,56.85
2022-12-15T09:26:36.843Z,57.97
2022-12-15T09:27:39.028Z,96.65
2022-12-15T09:28:42.953Z,63.00
2022-12-15T09:29:45.146Z,57.67
2022-12-15T09:30:47.306Z,57.95
2022-12-15T09:31:50.268Z,56.85
2022-12-15T09:32:52.472Z,58.08
2022-12-15T09:33:56.767Z,61.47
2022-12-15T09:34:58.965Z,57.53
2022-12-15T09:36:01.532Z,54.83
2022-12-15T09:37:03.766Z,58.60
2022-12-15T09:38:06.112Z,54.60
2022-12-15T09:39:11.756Z,57.35
2022-12-15T09:40:13.981Z,55.78
2022-12-15T09:41:25.273Z,56.72
2022-12-15T09:42:30.048Z,56.63
2022-12-15T09:43:35.236Z,50.60
2022-12-15T09:44:38.614Z,49.78
2022-12-15T09:45:45.355Z,52.80
2022-12-15T09:47:06.109Z,52.20
2022-12-15T09:48:18.424Z,50.13
2022-12-15T09:49:38.447Z,54.28
2022-12-15T09:50:44.480Z,53.55
2022-12-15T09:51:53.401Z,55.45
2022-12-15T09:53:00.611Z,52.42
2022-12-15T09:54:03.605Z,59.25
2022-12-15T09:55:28.044Z,57.55
2022-12-15T09:56:42.655Z,54.75
2022-12-15T09:57:50.992Z,56.65
2022-12-15T09:59:19.457Z,58.80
2022-12-15T10:00:25.496Z,51.63
2022-12-15T10:01:41.679Z,57.42
2022-12-15T10:03:13.219Z,56.90
2022-12-15T10:04:45.215Z,55.92
2022-12-15T10:06:16.539Z,55.92
2022-12-15T10:07:34.547Z,58.10
2022-12-15T10:08:50.574Z,56.47
2022-12-15T10:09:53.121Z,58.03
2022-12-15T10:10:59.306Z,54.33
2022-12-15T10:12:15.386Z,58.92
2022-12-15T10:13:31.620Z,57.38
2022-12-15T10:15:20.538Z,55.80
2022-12-15T10:16:34.935Z,58.33
2022-12-15T10:17:59.230Z,58.60
2022-12-15T10:19:26.241Z,56.78
2022-12-15T10:20:31.156Z,64.10
2022-12-15T10:21:33.667Z,57.85
2022-12-15T10:22:37.728Z,59.47
2022-12-15T10:23:40.164Z,56.80
2022-12-15T10:25:09.049Z,56.45
2022-12-15T10:27:10.412Z,55.72
2022-12-15T10:28:15.509Z,55.70
2022-12-15T10:29:39.570Z,61.15
2022-12-15T10:31:04.580Z,55.92
2022-12-15T10:32:20.052Z,55.60
2022-12-15T10:33:31.250Z,56.03
2022-12-15T10:34:36.427Z,57.70
2022-12-15T10:35:40.564Z,56.72
2022-12-15T10:36:51.001Z,61.92
2022-12-15T10:38:04.949Z,57.97
2022-12-15T10:39:07.296Z,52.40
2022-12-15T10:40:14.608Z,58.25
2022-12-15T10:41:25.860Z,52.83
2022-12-15T10:42:28.135Z,56.70
2022-12-15T10:43:42.279Z,54.08
2022-12-15T10:44:50.624Z,55.38
2022-12-15T10:46:11.093Z,56.95
2022-12-15T10:47:28.184Z,60.75
2022-12-15T10:48:30.335Z,58.35
2022-12-15T10:49:32.535Z,55.90
2022-12-15T10:50:35.582Z,56.30
2022-12-15T10:51:46.975Z,53.33
2022-12-15T10:52:49.355Z,57.42
2022-12-15T10:54:04.417Z,54.70
2022-12-15T10:55:35.937Z,50.38
2022-12-15T10:56:55.718Z,54.30
2022-12-15T10:58:00.392Z,52.33
2022-12-15T10:59:21.853Z,54.47
2022-12-15T11:00:32.169Z,52.20
2022-12-15T11:01:35.483Z,55.40
2022-12-15T11:02:38.309Z,54.50
2022-12-15T11:03:41.303Z,63.85
2022-12-15T11:05:15.644Z,53.45
2022-12-15T11:06:25.288Z,50.38
2022-12-15T11:07:42.040Z,55.70
2022-12-15T11:08:44.965Z,56.47
2022-12-15T11:09:48.596Z,52.85
2022-12-15T11:11:14.202Z,53.22
2022-12-15T11:13:42.409Z,57.22
2022-12-15T11:14:51.237Z,58.83
2022-12-15T11:15:56.318Z,59.20
2022-12-15T11:16:59.264Z,56.30
2022-12-15T11:18:30.921Z,53.60
2022-12-15T11:19:49.153Z,54.55
2022-12-15T11:21:01.997Z,54.15
2022-12-15T11:22:23.444Z,52.85
2022-12-15T11:23:46.600Z,53.20
2022-12-15T11:24:56.923Z,53.00
2022-12-15T11:26:07.253Z,55.33
2022-12-15T11:27:13.925Z,53.45
2022-12-15T11:28:20.542Z,55.35
2022-12-15T11:29:50.253Z,54.67
2022-12-15T11:31:01.234Z,54.55
2022-12-15T11:32:07.348Z,53.50
2022-12-15T11:33:10.636Z,54.90
2022-12-15T11:34:22.806Z,56.72
2022-12-15T11:35:50.687Z,53.15
2022-12-15T11:37:12.639Z,61.50
2022-12-15T11:38:38.560Z,54.53
2022-12-15T11:40:15.338Z,57.22
2022-12-15T11:41:35.913Z,52.92
2022-12-15T11:42:59.492Z,51.13
2022-12-15T11:44:16.542Z,59.88
2022-12-15T11:45:26.788Z,55.30
2022-12-15T11:46:42.339Z,55.45
2022-12-15T11:48:01.123Z,61.05
2022-12-15T11:49:41.114Z,60.63
2022-12-15T11:50:53.292Z,57.95
2022-12-15T11:52:14.146Z,52.38
2022-12-15T11:53:41.671Z,53.90
2022-12-15T11:55:07.793Z,56.85
2022-12-15T11:56:23.838Z,55.97
2022-12-15T11:58:01.101Z,53.50
2022-12-15T11:59:40.545Z,53.92
2022-12-15T12:00:56.006Z,56.60
2022-12-15T12:02:24.878Z,52.90
2022-12-15T12:03:43.584Z,57.53
2022-12-15T12:05:07.403Z,61.05
2022-12-15T12:06:12.044Z,50.58
2022-12-15T12:07:50.240Z,54.80
2022-12-15T12:09:13.542Z,55.85
2022-12-15T12:10:27.699Z,56.65
2022-12-15T12:11:42.654Z,55.15
2022-12-15T12:13:15.423Z,50.78
2022-12-15T12:14:31.855Z,55.60
2022-12-15T12:16:01.639Z,56.38
2022-12-15T12:17:09.170Z,52.88
2022-12-15T12:18:22.971Z,53.05
2022-12-15T12:19:33.644Z,53.05
2022-12-15T12:20:45.629Z,53.15
2022-12-15T12:21:58.193Z,38.33
2022-12-15T12:23:05.227Z,51.85
2022-12-15T12:24:14.240Z,50.20
2022-12-15T12:25:22.608Z,49.47
2022-12-15T12:26:46.264Z,51.97
2022-12-15T12:28:05.634Z,56.45
2022-12-15T12:29:13.941Z,47.83
2022-12-15T12:30:38.596Z,52.80
2022-12-15T12:31:47.525Z,52.50
2022-12-15T12:33:02.120Z,50.70
2022-12-15T12:34:14.025Z,51.50
2022-12-15T12:35:46.091Z,50.60
2022-12-15T12:36:50.792Z,50.08
2022-12-15T12:38:03.272Z,49.58
2022-12-15T12:39:10.400Z,52.05
2022-12-15T12:40:29.168Z,53.45
2022-12-15T12:41:43.172Z,51.72
2022-12-15T12:42:53.413Z,55.38
2022-12-15T12:44:00.493Z,54.08
2022-12-15T12:45:03.133Z,52.60
2022-12-15T12:46:19.688Z,53.28
2022-12-15T12:47:33.030Z,51.72
2022-12-15T12:48:50.222Z,51.20
2022-12-15T12:49:56.541Z,54.80
2022-12-15T12:51:27.642Z,55.67
2022-12-15T12:52:33.396Z,50.90
2022-12-15T12:53:36.170Z,49.40
2022-12-15T12:54:46.981Z,50.67
2022-12-15T12:55:50.953Z,51.45
2022-12-15T12:56:53.403Z,49.67
2022-12-15T12:57:56.039Z,46.03
2022-12-15T12:58:58.320Z,49.25
2022-12-15T13:00:14.298Z,49.83
2022-12-15T13:01:25.260Z,50.95
2022-12-15T13:02:27.671Z,53.85
2022-12-15T13:03:30.431Z,49.42
2022-12-15T13:04:40.756Z,48.88
2022-12-15T13:05:45.642Z,49.60
2022-12-15T13:06:50.964Z,49.72
2022-12-15T13:08:15.751Z,51.55
2022-12-15T13:09:18.091Z,51.13
2022-12-15T13:10:21.873Z,51.53
2022-12-15T13:11:48.997Z,48.17
2022-12-15T13:12:55.749Z,54.63
2022-12-15T13:13:58.172Z,54.33
2022-12-15T13:15:06.096Z,56.40
2022-12-15T13:16:25.516Z,54.65
2022-12-15T13:17:31.231Z,61.70
2022-12-15T13:19:01.764Z,52.55
2022-12-15T13:20:17.081Z,70.07
2022-12-15T13:21:44.161Z,55.33
2022-12-15T13:22:46.749Z,54.00
2022-12-15T13:23:58.404Z,56.35
2022-12-15T13:25:02.463Z,53.35
2022-12-15T13:26:04.923Z,55.92
2022-12-15T13:27:09.729Z,49.58
2022-12-15T13:28:29.361Z,50.65
2022-12-15T13:29:31.550Z,50.75
2022-12-15T13:30:33.878Z,51.55
2022-12-15T13:31:46.310Z,48.20
2022-12-15T13:32:54.417Z,47.17
2022-12-15T13:34:05.059Z,47.63
2022-12-15T13:35:12.974Z,52.75
2022-12-15T13:36:36.822Z,50.58
2022-12-15T13:38:04.404Z,54.10
2022-12-15T13:39:12.317Z,45.03
2022-12-15T13:40:34.996Z,51.28
2022-12-15T13:41:37.325Z,47.20
2022-12-15T13:42:53.236Z,50.05
2022-12-15T13:44:01.048Z,50.47
2022-12-15T13:45:28.876Z,51.00
2022-12-15T13:46:33.696Z,46.33
2022-12-15T13:47:36.269Z,49.63
2022-12-15T13:48:45.858Z,49.20
2022-12-15T13:50:07.228Z,48.42
2022-12-15T13:51:28.180Z,52.35
2022-12-15T13:53:17.011Z,46.70
2022-12-15T13:55:27.869Z,48.95
2022-12-15T13:56:39.291Z,45.90
2022-12-15T13:57:54.080Z,48.67
2022-12-15T13:59:14.323Z,50.38
2022-12-15T14:00:18.677Z,49.13
2022-12-15T14:02:48.760Z,47.47
2022-12-15T14:04:15.801Z,47.28
2022-12-15T14:05:22.732Z,50.92
2022-12-15T14:06:36.581Z,47.00
2022-12-15T14:07:48.319Z,48.33
2022-12-15T14:08:54.942Z,47.20
2022-12-15T14:09:57.198Z,46.28
2022-12-15T14:11:16.556Z,45.97
2022-12-15T14:12:24.478Z,49.65
2022-12-15T14:13:34.029Z,44.92
2022-12-15T14:14:43.454Z,49.25
2022-12-15T14:15:52.448Z,51.17
2022-12-15T14:16:58.357Z,48.90
2022-12-15T14:18:02.370Z,48.17
2022-12-15T14:19:16.295Z,42.80
2022-12-15T14:20:23.106Z,47.28
2022-12-15T14:21:30.256Z,45.50
2022-12-15T14:22:32.448Z,48.65
2022-12-15T14:25:18.884Z,45.45
2022-12-15T14:26:27.800Z,46.22
2022-12-15T14:27:31.907Z,51.75
2022-12-15T14:28:36.640Z,46.10
2022-12-15T14:29:38.962Z,48.20
2022-12-15T14:30:41.482Z,47.33
2022-12-15T14:31:53.666Z,43.22
2022-12-15T14:33:06.848Z,50.90
2022-12-15T14:34:15.235Z,48.45
2022-12-15T14:35:24.260Z,44.17
2022-12-15T14:36:26.739Z,47.83
2022-12-15T14:37:29.326Z,49.08
2022-12-15T14:38:41.925Z,47.17
2022-12-15T14:39:47.658Z,50.20
2022-12-15T14:40:57.278Z,49.72
2022-12-15T14:42:01.381Z,44.85
2022-12-15T14:43:05.733Z,46.78
2022-12-15T14:44:36.529Z,47.03
2022-12-15T14:45:39.977Z,54.45
2022-12-15T14:46:49.346Z,54.47
2022-12-15T14:48:21.575Z,48.05
2022-12-15T14:49:27.262Z,50.40
2022-12-15T14:50:30.265Z,48.65
2022-12-15T14:51:42.767Z,51.08
2022-12-15T14:53:53.173Z,48.53
2022-12-15T14:54:58.874Z,47.40
2022-12-15T14:56:27.802Z,64.68
2022-12-15T14:57:43.523Z,61.35
2022-12-15T14:59:05.948Z,54.42
2022-12-15T15:00:32.947Z,49.30
2022-12-15T15:01:41.248Z,49.42
2022-12-15T15:02:43.762Z,42.55
2022-12-15T15:03:15.650Z,48.13
2022-12-15T15:03:46.427Z,46.33
2022-12-15T15:05:04.509Z,50.25
2022-12-15T15:06:12.733Z,46.05
2022-12-15T15:07:17.876Z,47.22
2022-12-15T15:08:29.304Z,47.08
2022-12-15T15:09:38.725Z,47.53